ADDS METAR Data INFO
IDs: Format: Raw Decoded Include TAF

Data at: 0622 UTC 15 Dec 2017

KSPS 150552Z AUTO 27005KT 10SM CLR 02/M04 A3024 RMK AO2 SLP241 T00171044 10067 20011 401330011 53011
KSPS 150452Z AUTO 28003KT 10SM CLR 02/M04 A3023 RMK AO2 SLP237 T00221039
KSPS 150352Z AUTO 31004KT 10SM CLR 05/M04 A3021 RMK AO2 SLP233 T00501039
KSPS 150252Z AUTO 31004KT 10SM CLR 06/M04 A3021 RMK AO2 SLP231 T00561039 51018
KSPS 150152Z 34005KT 10SM CLR 06/M04 A3020 RMK AO2 SLP228 T00611039
KSPS 150052Z 34004KT 10SM CLR 07/M04 A3018 RMK AO2 SLP222 T00671039
KSPS 142352Z 02008KT 10SM CLR 06/M04 A3015 RMK AO2 SLP213 T00561044 10133 20056 53012
KSPS 142252Z 02013KT 10SM CLR 11/M04 A3014 RMK AO2 SLP207 T01061039
KSPS 142152Z 01015KT 10SM CLR 12/M03 A3013 RMK AO2 SLP202 T01221033
KSPS 142052Z 36014KT 10SM FEW200 13/M03 A3012 RMK AO2 SLP199 T01281033 55014
KSPS 141952Z 35017KT 10SM FEW200 13/M02 A3011 RMK AO2 SLP197 T01281022
KSPS 141852Z 03014KT 10SM FEW200 13/M02 A3013 RMK AO2 SLP202 T01281022
KSPS 141752Z 03013KT 10SM CLR 12/M03 A3016 RMK AO2 SLP212 T01221028 10128 20011 50012
KSPS 141652Z 02016KT 10SM FEW200 11/M02 A3017 RMK AO2 SLP215 T01111022
KSPS 141552Z 02014KT 10SM CLR 08/M02 A3016 RMK AO2 SLP211 T00831022
KSPS 141452Z 01010KT 10SM FEW200 06/M03 A3012 RMK AO2 SLP200 T00611028 51033
KSPS 141352Z 36010KT 10SM FEW200 02/M04 A3009 RMK AO2 SLP192 T00221039
KSPS 141252Z 36011KT 10SM CLR 02/M04 A3006 RMK AO2 SLP181 T00221044
KSPS 141152Z 36011KT 10SM CLR 03/M04 A3002 RMK AO2 SLP165 T00281044 10072 20011 53026
KSPS 141052Z 36006KT 10SM CLR 02/M05 A3000 RMK AO2 SLP155 T00171050
KSPS 140952Z AUTO 35009KT 10SM CLR 02/M05 A2997 RMK AO2 SLP145 T00171050
KSPS 140852Z AUTO 34008KT 10SM CLR 03/M05 A2994 RMK AO2 SLP136 T00281050 53005
KSPS 140752Z AUTO 33007KT 10SM CLR 04/M04 A2993 RMK AO2 SLP132 T00441044
KSPS 140652Z AUTO 36003KT 10SM CLR 06/M04 A2992 RMK AO2 SLP128 T00611044
KSPS 140552Z AUTO 33007KT 10SM CLR 06/M04 A2993 RMK AO2 SLP131 T00611044 10156 20039 401940028 50002
KSPS 140452Z AUTO 35009KT 10SM CLR 06/M04 A2993 RMK AO2 SLP133 T00561039
KSPS 140352Z AUTO 35006KT 10SM CLR 08/M04 A2993 RMK AO2 SLP132 T00781044
KSPS 140252Z AUTO 36005KT 10SM CLR 09/M04 A2992 RMK AO2 SLP131 T00941044 53009
KSPS 140152Z AUTO 36005KT 10SM CLR 10/M04 A2991 RMK AO2 SLP129 T01001044
KSPS 140052Z 35008KT 10SM CLR 11/M06 A2990 RMK AO2 SLP124 T01061056
KSPS 132352Z 00000KT 10SM FEW250 16/M08 A2989 RMK AO2 SLP121 T01561078 10194 20156 55003
KSPS 132252Z 00000KT 10SM FEW250 18/M07 A2989 RMK AO2 SLP120 T01781072
KSPS 132152Z VRB03KT 10SM CLR 19/M08 A2989 RMK AO2 SLP119 T01891078
KSPS 132052Z VRB05KT 10SM CLR 19/M08 A2990 RMK AO2 SLP123 T01941083 56023
KSPS 131952Z 30006KT 10SM CLR 18/M09 A2992 RMK AO2 SLP128 T01831089
KSPS 131852Z 28008KT 10SM CLR 18/M08 A2994 RMK AO2 SLP135 T01781083